Time,TemperatureF,DewpointF,PressureIn,WindDirection,WindDirectionDegrees,WindSpeedMPH,WindSpeedGustMPH,Humidity,HourlyPrecipIn,Conditions,Clouds,dailyrainin,SoftwareType,DateUTC
2013-10-21 00:03:00,52.0,20.0,29.86,ESE,120,0.0,1.0,28,0.00,,,0.00,weatherlink.com 1.10,2013-10-21 06:03:00,
2013-10-21 00:18:00,52.9,20.0,29.86,ESE,114,2.0,2.0,27,0.00,,,0.00,weatherlink.com 1.10,2013-10-21 06:18:00,
2013-10-21 00:33:00,53.5,18.0,29.86,SE,145,5.0,5.0,25,0.00,,,0.00,weatherlink.com 1.10,2013-10-21 06:33:00,
2013-10-21 00:48:00,55.5,21.0,29.87,ESE,105,3.0,9.0,26,0.00,,,0.00,weatherlink.com 1.10,2013-10-21 06:48:00,
2013-10-21 01:03:00,55.7,25.0,29.87,SE,141,2.0,18.0,30,0.00,,,0.00,weatherlink.com 1.10,2013-10-21 07:03:00,
2013-10-21 01:18:00,55.1,26.0,29.87,SE,136,3.0,11.0,33,0.00,,,0.00,weatherlink.com 1.10,2013-10-21 07:18:00,
2013-10-21 01:33:00,54.7,27.0,29.86,ESE,108,1.0,9.0,35,0.00,,,0.00,weatherlink.com 1.10,2013-10-21 07:33:00,
2013-10-21 01:48:00,54.2,28.0,29.86,SE,131,2.0,12.0,37,0.00,,,0.00,weatherlink.com 1.10,2013-10-21 07:48:00,
2013-10-21 02:03:00,53.9,29.0,29.87,East,97,5.0,11.0,38,0.00,,,0.00,weatherlink.com 1.10,2013-10-21 08:03:00,
2013-10-21 02:18:00,53.0,29.0,29.87,ESE,113,6.0,15.0,40,0.00,,,0.00,weatherlink.com 1.10,2013-10-21 08:18:00,
2013-10-21 02:33:00,52.4,29.0,29.88,East,92,4.0,12.0,41,0.00,,,0.00,weatherlink.com 1.10,2013-10-21 08:33:00,
2013-10-21 02:48:00,51.7,30.0,29.88,East,101,9.0,15.0,44,0.00,,,0.00,weatherlink.com 1.10,2013-10-21 08:48:00,
2013-10-21 03:03:00,51.1,30.0,29.88,East,94,14.0,14.0,45,0.00,,,0.00,weatherlink.com 1.10,2013-10-21 09:03:00,
2013-10-21 03:18:00,50.8,31.0,29.88,SE,127,5.0,12.0,46,0.00,,,0.00,weatherlink.com 1.10,2013-10-21 09:18:00,
2013-10-21 03:33:00,50.4,31.0,29.89,ENE,72,8.0,12.0,47,0.00,,,0.00,weatherlink.com 1.10,2013-10-21 09:33:00,
2013-10-21 03:49:00,49.9,31.0,29.89,WSW,239,4.0,8.0,49,0.00,,,0.00,weatherlink.com 1.10,2013-10-21 09:49:00,
2013-10-21 04:04:00,49.5,31.0,29.89,East,98,1.0,10.0,50,0.00,,,0.00,weatherlink.com 1.10,2013-10-21 10:04:00,
2013-10-21 04:19:00,49.4,32.0,29.90,SE,132,0.0,13.0,51,0.00,,,0.00,weatherlink.com 1.10,2013-10-21 10:19:00,
2013-10-21 04:34:00,49.3,32.0,29.90,East,96,3.0,8.0,51,0.00,,,0.00,weatherlink.com 1.10,2013-10-21 10:34:00,
2013-10-21 04:49:00,48.8,32.0,29.91,SE,127,2.0,8.0,52,0.00,,,0.00,weatherlink.com 1.10,2013-10-21 10:49:00,
2013-10-21 05:04:00,48.7,32.0,29.91,SSE,163,2.0,9.0,52,0.00,,,0.00,weatherlink.com 1.10,2013-10-21 11:04:00,
2013-10-21 05:19:00,48.6,31.0,29.91,East,95,1.0,6.0,52,0.00,,,0.00,weatherlink.com 1.10,2013-10-21 11:19:00,
2013-10-21 05:34:00,48.4,31.0,29.92,NNE,26,1.0,8.0,52,0.00,,,0.00,weatherlink.com 1.10,2013-10-21 11:34:00,
2013-10-21 05:49:00,47.5,29.0,29.93,SSE,162,0.0,1.0,49,0.00,,,0.00,weatherlink.com 1.10,2013-10-21 11:49:00,
2013-10-21 06:04:00,46.4,26.0,29.93,ESE,112,0.0,1.0,46,0.00,,,0.00,weatherlink.com 1.10,2013-10-21 12:04:00,
2013-10-21 06:19:00,45.1,27.0,29.94,ESE,120,0.0,2.0,50,0.00,,,0.00,weatherlink.com 1.10,2013-10-21 12:19:00,
2013-10-21 06:34:00,44.9,29.0,29.95,ESE,102,0.0,1.0,53,0.00,,,0.00,weatherlink.com 1.10,2013-10-21 12:34:00,
2013-10-21 06:49:00,44.4,29.0,29.96,East,101,0.0,1.0,55,0.00,,,0.00,weatherlink.com 1.10,2013-10-21 12:49:00,
2013-10-21 07:04:00,44.6,31.0,29.96,East,101,0.0,1.0,59,0.00,,,0.00,weatherlink.com 1.10,2013-10-21 13:04:00,
2013-10-21 07:19:00,43.7,30.0,29.96,ESE,102,0.0,0.0,60,0.00,,,0.00,weatherlink.com 1.10,2013-10-21 13:19:00,
2013-10-21 07:34:00,43.7,30.0,29.97,ESE,102,0.0,1.0,59,0.00,,,0.00,weatherlink.com 1.10,2013-10-21 13:34:00,
2013-10-21 07:49:00,44.4,32.0,29.98,East,101,0.0,1.0,62,0.00,,,0.00,weatherlink.com 1.10,2013-10-21 13:49:00,
2013-10-21 08:04:00,45.0,30.0,29.99,WNW,298,1.0,2.0,56,0.00,,,0.00,weatherlink.com 1.10,2013-10-21 14:04:00,
2013-10-21 08:19:00,45.9,30.0,30.00,NW,323,1.0,5.0,55,0.00,,,0.00,weatherlink.com 1.10,2013-10-21 14:19:00,
2013-10-21 08:34:00,47.4,31.0,30.00,NNW,345,1.0,2.0,54,0.00,,,0.00,weatherlink.com 1.10,2013-10-21 14:34:00,
2013-10-21 08:49:00,48.5,32.0,30.00,NNW,342,0.0,1.0,53,0.00,,,0.00,weatherlink.com 1.10,2013-10-21 14:49:00,
2013-10-21 09:04:00,50.6,32.0,30.01,WSW,248,1.0,2.0,50,0.00,,,0.00,weatherlink.com 1.10,2013-10-21 15:04:00,
2013-10-21 09:19:00,51.2,32.0,30.01,WSW,238,0.0,2.0,48,0.00,,,0.00,weatherlink.com 1.10,2013-10-21 15:19:00,
2013-10-21 09:34:00,52.4,32.0,30.01,SW,234,0.0,2.0,47,0.00,,,0.00,weatherlink.com 1.10,2013-10-21 15:34:00,
2013-10-21 09:49:00,53.2,32.0,30.01,North,349,0.0,2.0,44,0.00,,,0.00,weatherlink.com 1.10,2013-10-21 15:49:00,
2013-10-21 10:04:00,53.9,32.0,30.01,WSW,257,1.0,2.0,44,0.00,,,0.00,weatherlink.com 1.10,2013-10-21 16:04:00,
2013-10-21 10:19:00,54.7,32.0,30.01,NNW,347,0.0,2.0,42,0.00,,,0.00,weatherlink.com 1.10,2013-10-21 16:19:00,
2013-10-21 10:34:00,54.7,32.0,30.01,NNW,343,2.0,3.0,43,0.00,,,0.00,weatherlink.com 1.10,2013-10-21 16:34:00,
2013-10-21 10:50:00,56.4,32.0,30.01,SSW,197,1.0,3.0,39,0.00,,,0.00,weatherlink.com 1.10,2013-10-21 16:50:00,
2013-10-21 11:05:00,57.1,31.0,30.01,SE,129,0.0,3.0,38,0.00,,,0.00,weatherlink.com 1.10,2013-10-21 17:05:00,
2013-10-21 11:20:00,58.2,32.0,30.00,WSW,250,0.0,2.0,37,0.00,,,0.00,weatherlink.com 1.10,2013-10-21 17:20:00,
2013-10-21 11:35:00,59.1,31.0,30.01,NW,309,1.0,3.0,34,0.00,,,0.00,weatherlink.com 1.10,2013-10-21 17:35:00,
2013-10-21 11:50:00,60.1,31.0,30.00,East,93,1.0,3.0,33,0.00,,,0.00,weatherlink.com 1.10,2013-10-21 17:50:00,
2013-10-21 12:05:00,59.5,31.0,30.00,North,349,0.0,4.0,34,0.00,,,0.00,weatherlink.com 1.10,2013-10-21 18:05:00,
2013-10-21 12:20:00,59.5,30.0,30.00,NW,309,1.0,4.0,33,0.00,,,0.00,weatherlink.com 1.10,2013-10-21 18:20:00,
2013-10-21 12:35:00,59.9,30.0,29.99,SSW,212,0.0,7.0,32,0.00,,,0.00,weatherlink.com 1.10,2013-10-21 18:35:00,
2013-10-21 12:50:00,60.3,29.0,29.99,NW,321,1.0,4.0,31,0.00,,,0.00,weatherlink.com 1.10,2013-10-21 18:50:00,
2013-10-21 13:05:00,61.6,27.0,29.98,East,87,2.0,4.0,27,0.00,,,0.00,weatherlink.com 1.10,2013-10-21 19:05:00,
2013-10-21 13:20:00,63.4,28.0,29.97,WSW,246,2.0,4.0,26,0.00,,,0.00,weatherlink.com 1.10,2013-10-21 19:20:00,
2013-10-21 13:35:00,61.8,27.0,29.96,SW,218,0.0,6.0,27,0.00,,,0.00,weatherlink.com 1.10,2013-10-21 19:35:00,
2013-10-21 13:50:00,63.5,29.0,29.95,North,359,0.0,3.0,27,0.00,,,0.00,weatherlink.com 1.10,2013-10-21 19:50:00,
2013-10-21 14:05:00,63.5,27.0,29.95,SW,235,3.0,5.0,25,0.00,,,0.00,weatherlink.com 1.10,2013-10-21 20:05:00,
2013-10-21 14:20:00,64.7,29.0,29.95,WSW,239,0.0,4.0,26,0.00,,,0.00,weatherlink.com 1.10,2013-10-21 20:20:00,
2013-10-21 14:35:00,65.4,30.0,29.95,North,360,3.0,4.0,27,0.00,,,0.00,weatherlink.com 1.10,2013-10-21 20:35:00,
2013-10-21 14:50:00,64.8,29.0,29.95,SW,229,0.0,5.0,26,0.00,,,0.00,weatherlink.com 1.10,2013-10-21 20:50:00,
2013-10-21 15:05:00,66.0,28.0,29.95,WSW,237,5.0,5.0,24,0.00,,,0.00,weatherlink.com 1.10,2013-10-21 21:05:00,
2013-10-21 15:20:00,65.3,28.0,29.95,North,11,1.0,4.0,25,0.00,,,0.00,weatherlink.com 1.10,2013-10-21 21:20:00,
2013-10-21 15:35:00,65.5,28.0,29.94,West,281,0.0,5.0,24,0.00,,,0.00,weatherlink.com 1.10,2013-10-21 21:35:00,
2013-10-21 15:50:00,65.5,28.0,29.95,WNW,287,1.0,4.0,24,0.00,,,0.00,weatherlink.com 1.10,2013-10-21 21:50:00,
2013-10-21 16:05:00,66.1,28.0,29.94,NW,310,2.0,7.0,24,0.00,,,0.00,weatherlink.com 1.10,2013-10-21 22:05:00,
2013-10-21 16:20:00,66.4,27.0,29.94,NNE,22,0.0,3.0,23,0.00,,,0.00,weatherlink.com 1.10,2013-10-21 22:20:00,
2013-10-21 16:35:00,66.5,28.0,29.94,North,3,1.0,5.0,24,0.00,,,0.00,weatherlink.com 1.10,2013-10-21 22:35:00,
2013-10-21 16:50:00,65.6,26.0,29.94,NE,34,1.0,5.0,22,0.00,,,0.00,weatherlink.com 1.10,2013-10-21 22:50:00,
2013-10-21 17:05:00,65.6,27.0,29.93,North,1,0.0,3.0,23,0.00,,,0.00,weatherlink.com 1.10,2013-10-21 23:05:00,
2013-10-21 17:20:00,65.9,27.0,29.93,NNW,345,0.0,2.0,23,0.00,,,0.00,weatherlink.com 1.10,2013-10-21 23:20:00,
2013-10-21 17:35:00,65.4,27.0,29.93,North,352,0.0,2.0,23,0.00,,,0.00,weatherlink.com 1.10,2013-10-21 23:35:00,
2013-10-21 17:50:00,64.9,28.0,29.94,NNW,338,0.0,1.0,25,0.00,,,0.00,weatherlink.com 1.10,2013-10-21 23:50:00,
2013-10-21 18:05:00,63.5,31.0,29.94,NNW,341,0.0,0.0,30,0.00,,,0.00,weatherlink.com 1.10,2013-10-22 00:05:00,
2013-10-21 18:20:00,63.8,31.0,29.95,NNW,342,0.0,0.0,29,0.00,,,0.00,weatherlink.com 1.10,2013-10-22 00:20:00,
2013-10-21 18:35:00,60.9,31.0,29.95,NNW,342,0.0,0.0,33,0.00,,,0.00,weatherlink.com 1.10,2013-10-22 00:35:00,
2013-10-21 18:50:00,62.0,32.0,29.95,NNW,342,0.0,0.0,32,0.00,,,0.00,weatherlink.com 1.10,2013-10-22 00:50:00,
2013-10-21 19:05:00,59.6,32.0,29.96,NNW,342,0.0,0.0,35,0.00,,,0.00,weatherlink.com 1.10,2013-10-22 01:05:00,
2013-10-21 19:20:00,58.4,31.0,29.96,NNW,341,0.0,0.0,36,0.00,,,0.00,weatherlink.com 1.10,2013-10-22 01:20:00,
2013-10-21 19:35:00,58.2,31.0,29.97,NNW,341,0.0,0.0,35,0.00,,,0.00,weatherlink.com 1.10,2013-10-22 01:35:00,
2013-10-21 19:50:00,56.8,33.0,29.97,NNW,342,0.0,0.0,41,0.00,,,0.00,weatherlink.com 1.10,2013-10-22 01:50:00,
2013-10-21 20:05:00,57.2,33.0,29.97,NNW,342,0.0,1.0,40,0.00,,,0.00,weatherlink.com 1.10,2013-10-22 02:05:00,
2013-10-21 20:20:00,58.2,33.0,29.98,NNW,342,0.0,0.0,39,0.00,,,0.00,weatherlink.com 1.10,2013-10-22 02:20:00,
2013-10-21 20:35:00,54.3,29.0,29.99,NNW,341,0.0,1.0,38,0.00,,,0.00,weatherlink.com 1.10,2013-10-22 02:35:00,
2013-10-21 20:50:00,52.5,27.0,29.99,NNW,342,0.0,1.0,38,0.00,,,0.00,weatherlink.com 1.10,2013-10-22 02:50:00,
2013-10-21 21:05:00,54.0,32.0,30.00,NNW,341,0.0,0.0,44,0.00,,,0.00,weatherlink.com 1.10,2013-10-22 03:05:00,
2013-10-21 21:20:00,52.1,29.0,30.01,NNW,340,0.0,1.0,41,0.00,,,0.00,weatherlink.com 1.10,2013-10-22 03:20:00,
2013-10-21 21:35:00,51.8,32.0,30.02,NNW,340,0.0,0.0,48,0.00,,,0.00,weatherlink.com 1.10,2013-10-22 03:35:00,
2013-10-21 21:50:00,51.3,30.0,30.03,NNW,340,0.0,0.0,45,0.00,,,0.00,weatherlink.com 1.10,2013-10-22 03:50:00,
2013-10-21 22:05:00,51.8,33.0,30.04,NNW,340,0.0,0.0,49,0.00,,,0.00,weatherlink.com 1.10,2013-10-22 04:05:00,
2013-10-21 22:20:00,51.8,31.0,30.04,NNW,340,0.0,1.0,45,0.00,,,0.00,weatherlink.com 1.10,2013-10-22 04:20:00,
2013-10-21 22:35:00,50.7,31.0,30.05,NNW,340,0.0,0.0,48,0.00,,,0.00,weatherlink.com 1.10,2013-10-22 04:35:00,
2013-10-21 22:50:00,52.3,32.0,30.05,NNW,340,0.0,0.0,47,0.00,,,0.00,weatherlink.com 1.10,2013-10-22 04:50:00,
2013-10-21 23:05:00,53.2,30.0,30.05,NNW,340,0.0,0.0,42,0.00,,,0.00,weatherlink.com 1.10,2013-10-22 05:05:00,
2013-10-21 23:20:00,51.2,30.0,30.05,NNW,340,0.0,0.0,45,0.00,,,0.00,weatherlink.com 1.10,2013-10-22 05:20:00,
2013-10-21 23:35:00,49.6,31.0,30.05,NNW,340,0.0,0.0,49,0.00,,,0.00,weatherlink.com 1.10,2013-10-22 05:35:00,
2013-10-21 23:50:00,48.9,31.0,30.05,NNW,340,0.0,0.0,50,0.00,,,0.00,weatherlink.com 1.10,2013-10-22 05:50:00,